Strona główna
METAR-TAF:

METAR-TAF

Lotnisko :

Port lotniczy Lublin

Lublin, Polska

Szerokość geograficzna: 51-13-55N, Długość geograficzna: 22-41-25E, wysokość: 203 m

Aktualna obserwacja pogody

Raport powstał 31 minut temu, godzina 09:30 UTC
Wiatr 4 kt od północno-północny wschód
Temperatura 0°C
Wilgotność 93%
Ciśnienie 1024 hPa
Widzialność: 8000 m
Przerywane chmury na wysokości 700 ft
Zachmurzenie całkowite na wysokości 1800 ft
słaby śnieg

METAR: EPLB 140930Z 03004KT 8000 -SN BKN007 OVC018 M00/M01 Q1024

czas: 11:01 (10:01 UTC)

Prognoza

Raport powstał 1 godzina i 31 minut temu, godzina 08:30 UTC
Prognoza ważna od 14 godzina 09 UTC do 14 godzina 18 UTC
Wiatr 5 kt od północ
Widzialność 10 km lub więcej
Przerywane chmury na wysokości 1200 ft
Zachmurzenie całkowite na wysokości 2000 ft
Prawdopodobieństwo 40% :
Przejściowo
od 14 godzina 09 UTC do 14 godzina 18 UTC
Widzialność: 4500 m
Przerywane chmury na wysokości 700 ft
słaby śnieg

TAF: EPLB 140830Z 1409/1418 01005KT 9999 BKN012 OVC020 PROB40 TEMPO 1409/1418 4500 -SN BKN007

Obserwacja i prognoza pogody dla ponad 4000 lotnisk (raport METAR i TAF).

Dostępne stacje oznaczono żółtymi i czerwonymi punktami na mapie.

Najedź kursorem aby zobaczyć nazwę stacji.

Kliknij aby zobaczyć obserwacje i prognozy pogody.

Aby zmienić mapę: kliknij na zielony przycisk z czarnym krzyżykiem, aby powiększyć; na zielony przycisk z myślnikiem, aby pomniejszyć; na zielone strzałki, aby przejść do map sąsiednich.


METAR-TAF: